createdAt,value
2022-10-31T00:01:18.916Z,18.80
2022-10-31T00:03:45.925Z,18.80
2022-10-31T00:06:12.901Z,18.80
2022-10-31T00:08:39.841Z,18.80
2022-10-31T00:11:10.765Z,18.80
2022-10-31T00:13:38.039Z,18.70
2022-10-31T00:16:05.484Z,18.80
2022-10-31T00:18:32.432Z,18.70
2022-10-31T00:21:00.943Z,18.70
2022-10-31T00:23:27.918Z,18.70
2022-10-31T00:25:54.889Z,18.70
2022-10-31T00:28:21.835Z,18.70
2022-10-31T00:30:48.696Z,18.60
2022-10-31T00:33:15.576Z,18.60
2022-10-31T00:35:42.991Z,18.60
2022-10-31T00:38:09.884Z,18.60
2022-10-31T00:40:36.935Z,18.60
2022-10-31T00:43:04.388Z,18.60
2022-10-31T00:45:31.838Z,18.60
2022-10-31T00:47:59.145Z,18.50
2022-10-31T00:50:26.305Z,18.50
2022-10-31T00:52:53.249Z,18.40
2022-10-31T00:55:20.200Z,18.40
2022-10-31T00:57:48.643Z,18.40
2022-10-31T01:00:16.440Z,18.40
2022-10-31T01:02:43.720Z,18.40
2022-10-31T01:05:11.139Z,18.40
2022-10-31T01:07:39.346Z,18.40
2022-10-31T01:10:10.509Z,18.40
2022-10-31T01:12:45.772Z,18.40
2022-10-31T01:15:16.332Z,18.40
2022-10-31T01:17:43.596Z,18.30
2022-10-31T01:20:15.223Z,18.30
2022-10-31T01:22:42.403Z,18.30
2022-10-31T01:25:10.812Z,18.20
2022-10-31T01:27:37.839Z,18.20
2022-10-31T01:30:08.344Z,18.30
2022-10-31T01:32:35.630Z,18.20
2022-10-31T01:35:02.848Z,18.20
2022-10-31T01:37:31.230Z,18.20
2022-10-31T01:39:58.278Z,18.20
2022-10-31T01:42:25.430Z,18.20
2022-10-31T01:45:00.182Z,18.20
2022-10-31T01:47:48.153Z,18.20
2022-10-31T01:50:37.916Z,18.30
2022-10-31T01:53:08.172Z,18.20
2022-10-31T01:55:39.849Z,18.20
2022-10-31T01:58:12.254Z,18.20
2022-10-31T02:00:40.447Z,18.20
2022-10-31T02:03:07.381Z,18.10
2022-10-31T02:05:34.866Z,18.10
2022-10-31T02:08:16.900Z,18.00
2022-10-31T02:10:45.088Z,18.00
2022-10-31T02:13:13.966Z,18.00
2022-10-31T02:15:50.860Z,18.00
2022-10-31T02:18:19.602Z,18.10
2022-10-31T02:21:22.289Z,18.10
2022-10-31T02:24:07.185Z,18.00
2022-10-31T02:26:38.463Z,18.00
2022-10-31T02:29:20.589Z,18.00
2022-10-31T02:32:38.859Z,17.90
2022-10-31T02:35:38.337Z,17.90
2022-10-31T02:38:17.413Z,17.90
2022-10-31T02:40:50.223Z,17.90
2022-10-31T02:43:40.032Z,17.90
2022-10-31T02:46:27.734Z,17.90
2022-10-31T02:49:00.462Z,17.90
2022-10-31T02:51:28.118Z,17.90
2022-10-31T02:53:55.082Z,17.90
2022-10-31T02:56:22.162Z,17.90
2022-10-31T02:58:56.557Z,17.90
2022-10-31T03:01:30.056Z,17.90
2022-10-31T03:04:00.197Z,17.90
2022-10-31T03:06:30.526Z,17.90
2022-10-31T03:09:16.692Z,17.90
2022-10-31T03:12:07.993Z,17.90
2022-10-31T03:15:18.128Z,17.90
2022-10-31T03:17:54.591Z,17.90
2022-10-31T03:20:28.696Z,17.90
2022-10-31T03:22:56.812Z,17.90
2022-10-31T03:25:24.505Z,17.90
2022-10-31T03:27:56.299Z,17.90
2022-10-31T03:30:23.691Z,17.90
2022-10-31T03:33:00.917Z,17.90
2022-10-31T03:35:31.114Z,17.90
2022-10-31T03:38:05.545Z,17.80
2022-10-31T03:40:37.914Z,17.90
2022-10-31T03:43:12.910Z,17.90
2022-10-31T03:45:46.211Z,17.80
2022-10-31T03:48:15.613Z,17.80
2022-10-31T03:51:01.404Z,17.80
2022-10-31T03:53:33.785Z,17.80
2022-10-31T03:56:06.240Z,17.80
2022-10-31T03:58:41.865Z,17.80
2022-10-31T04:01:13.224Z,17.80
2022-10-31T04:03:42.083Z,17.80
2022-10-31T04:06:15.591Z,17.80
2022-10-31T04:08:57.171Z,17.70
2022-10-31T04:11:29.336Z,17.60
2022-10-31T04:14:28.640Z,17.60
2022-10-31T04:16:57.073Z,17.60
2022-10-31T04:19:30.617Z,17.70
2022-10-31T04:21:57.592Z,17.70
2022-10-31T04:24:24.511Z,17.70
2022-10-31T04:26:51.507Z,17.70
2022-10-31T04:29:21.156Z,17.70
2022-10-31T04:31:48.197Z,17.70
2022-10-31T04:34:15.176Z,17.70
2022-10-31T04:36:42.654Z,17.70
2022-10-31T04:39:09.584Z,17.70
2022-10-31T04:41:45.625Z,17.70
2022-10-31T04:44:16.611Z,17.70
2022-10-31T04:46:46.361Z,17.70
2022-10-31T04:49:13.709Z,17.70
2022-10-31T04:51:41.275Z,17.60
2022-10-31T04:54:09.578Z,17.60
2022-10-31T04:56:56.812Z,17.60
2022-10-31T04:59:24.109Z,17.50
2022-10-31T05:01:54.941Z,17.60
2022-10-31T05:04:31.836Z,17.50
2022-10-31T05:06:58.828Z,17.50
2022-10-31T05:09:25.893Z,17.50
2022-10-31T05:11:53.552Z,17.50
2022-10-31T05:14:49.946Z,17.60
2022-10-31T05:17:56.289Z,17.60
2022-10-31T05:20:42.121Z,17.60
2022-10-31T05:23:26.158Z,17.60
2022-10-31T05:25:54.092Z,17.60
2022-10-31T05:28:21.501Z,17.60
2022-10-31T05:30:48.430Z,17.60
2022-10-31T05:33:16.621Z,17.60
2022-10-31T05:36:02.154Z,17.60
2022-10-31T05:38:35.748Z,17.60
2022-10-31T05:41:11.975Z,17.60
2022-10-31T05:43:42.724Z,17.60
2022-10-31T05:46:10.472Z,17.60
2022-10-31T05:48:58.713Z,17.60
2022-10-31T05:51:47.587Z,17.60
2022-10-31T05:54:16.043Z,17.60
2022-10-31T05:56:45.388Z,17.50
2022-10-31T05:59:12.753Z,17.50
2022-10-31T06:01:40.588Z,17.50
2022-10-31T06:04:19.414Z,17.40
2022-10-31T06:06:46.462Z,17.40
2022-10-31T06:09:13.445Z,17.40
2022-10-31T06:11:40.678Z,17.40
2022-10-31T06:14:27.505Z,17.40
2022-10-31T06:16:56.974Z,17.40
2022-10-31T06:19:44.183Z,17.40
2022-10-31T06:22:15.475Z,17.50
2022-10-31T06:24:43.647Z,17.50
2022-10-31T06:27:28.605Z,17.50
2022-10-31T06:29:56.523Z,17.40
2022-10-31T06:32:35.215Z,17.40
2022-10-31T06:35:02.143Z,17.40
2022-10-31T06:37:29.456Z,17.40
2022-10-31T06:40:03.563Z,17.40
2022-10-31T06:42:43.909Z,17.40
2022-10-31T06:45:11.003Z,17.40
2022-10-31T06:51:15.919Z,17.50
2022-10-31T06:53:42.958Z,17.60
2022-10-31T06:56:12.237Z,17.60
2022-10-31T06:58:45.372Z,17.60
2022-10-31T07:01:13.855Z,17.60
2022-10-31T07:03:40.938Z,17.60
2022-10-31T07:06:08.442Z,17.60
2022-10-31T07:08:35.569Z,17.60
2022-10-31T07:11:02.636Z,17.60
2022-10-31T07:13:30.783Z,17.70
2022-10-31T07:16:05.571Z,17.70
2022-10-31T07:18:35.091Z,17.80
2022-10-31T07:21:02.923Z,17.80
2022-10-31T07:23:29.934Z,17.80
2022-10-31T07:26:17.093Z,17.80
2022-10-31T07:28:48.305Z,17.90
2022-10-31T07:31:17.844Z,17.90
2022-10-31T07:34:03.809Z,18.00
2022-10-31T07:36:51.471Z,18.00
2022-10-31T07:39:18.499Z,18.10
2022-10-31T07:41:46.504Z,18.10
2022-10-31T07:44:18.001Z,18.10
2022-10-31T07:47:20.493Z,18.20
2022-10-31T07:50:06.701Z,18.20
2022-10-31T07:53:06.445Z,18.30
2022-10-31T07:55:53.668Z,18.30
2022-10-31T07:58:20.617Z,18.40
2022-10-31T08:00:48.805Z,18.40
2022-10-31T08:03:28.701Z,18.40
2022-10-31T08:06:10.749Z,18.50
2022-10-31T08:09:08.076Z,18.50
2022-10-31T08:11:35.045Z,18.50
2022-10-31T08:14:03.054Z,18.50
2022-10-31T08:16:30.025Z,18.50
2022-10-31T08:19:01.254Z,18.60
2022-10-31T08:21:30.111Z,18.60
2022-10-31T08:23:58.857Z,18.60
2022-10-31T08:26:26.326Z,18.60
2022-10-31T08:28:55.811Z,18.70
2022-10-31T08:31:32.929Z,18.70
2022-10-31T08:34:19.337Z,18.70
2022-10-31T08:37:04.652Z,18.70
2022-10-31T08:39:39.977Z,18.70
2022-10-31T08:42:07.045Z,18.80
2022-10-31T08:44:34.065Z,18.80
2022-10-31T08:47:01.061Z,18.80
2022-10-31T08:49:28.049Z,18.80
2022-10-31T08:51:54.955Z,18.80
2022-10-31T08:54:21.929Z,18.90
2022-10-31T08:56:56.454Z,18.90
2022-10-31T08:59:49.729Z,18.90
2022-10-31T09:02:25.199Z,18.90
2022-10-31T09:04:57.204Z,19.00
2022-10-31T09:07:24.164Z,19.00
2022-10-31T09:09:51.109Z,19.00
2022-10-31T09:12:19.763Z,19.10
2022-10-31T09:15:25.572Z,19.10
2022-10-31T09:18:14.485Z,19.20
2022-10-31T09:20:59.664Z,19.20
2022-10-31T09:23:28.695Z,19.20
2022-10-31T09:25:56.611Z,19.30
2022-10-31T09:28:45.822Z,19.30
2022-10-31T09:31:14.490Z,19.30
2022-10-31T09:33:50.508Z,19.40
2022-10-31T09:36:44.105Z,19.40
2022-10-31T09:39:23.203Z,19.50
2022-10-31T09:42:17.512Z,19.50
2022-10-31T09:44:47.469Z,19.50
2022-10-31T09:48:30.176Z,19.60
2022-10-31T09:51:24.221Z,19.60
2022-10-31T09:54:06.246Z,19.60
2022-10-31T09:56:33.558Z,19.70
2022-10-31T09:59:03.550Z,19.70
2022-10-31T10:01:50.243Z,19.70
2022-10-31T10:04:37.357Z,19.80
2022-10-31T10:07:40.468Z,19.80
2022-10-31T10:10:15.029Z,19.90
2022-10-31T10:13:19.201Z,19.90
2022-10-31T10:15:49.214Z,19.90
2022-10-31T10:18:34.898Z,19.90
2022-10-31T10:21:19.654Z,20.00
2022-10-31T10:24:12.952Z,20.00
2022-10-31T10:26:44.748Z,20.00
2022-10-31T10:29:17.620Z,20.00
2022-10-31T10:31:48.050Z,20.10
2022-10-31T10:34:23.373Z,20.10
2022-10-31T10:36:57.482Z,20.10
2022-10-31T10:39:37.523Z,20.10
2022-10-31T10:42:34.112Z,20.20
2022-10-31T10:45:32.678Z,20.20
2022-10-31T10:48:44.107Z,20.30
2022-10-31T10:54:45.942Z,20.40
2022-10-31T10:57:24.022Z,20.40
2022-10-31T10:59:52.796Z,20.50
2022-10-31T11:02:32.739Z,20.50
2022-10-31T11:05:02.162Z,20.50
2022-10-31T11:07:42.225Z,20.50
2022-10-31T11:10:17.024Z,20.60
2022-10-31T11:12:46.868Z,20.60
2022-10-31T11:15:23.808Z,20.70
2022-10-31T11:17:53.635Z,20.70
2022-10-31T11:20:20.779Z,20.70
2022-10-31T11:22:49.285Z,20.80
2022-10-31T11:25:25.710Z,20.90
2022-10-31T11:28:04.227Z,20.90
2022-10-31T11:30:36.625Z,21.00
2022-10-31T11:33:04.758Z,21.10
2022-10-31T11:35:31.800Z,21.10
2022-10-31T11:38:01.555Z,21.20
2022-10-31T11:40:28.954Z,21.30
2022-10-31T11:43:00.043Z,21.30
2022-10-31T11:45:32.273Z,21.30
2022-10-31T11:48:02.147Z,21.40
2022-10-31T11:50:40.280Z,21.40
2022-10-31T11:53:18.068Z,21.40
2022-10-31T11:55:46.573Z,21.40
2022-10-31T11:58:25.210Z,21.50
2022-10-31T12:00:55.870Z,21.50
2022-10-31T12:03:55.251Z,21.50
2022-10-31T12:06:28.092Z,21.50
2022-10-31T12:08:55.349Z,21.60
2022-10-31T12:11:31.120Z,21.60
2022-10-31T12:14:20.413Z,21.50
2022-10-31T12:17:01.206Z,21.50
2022-10-31T12:19:56.336Z,21.40
2022-10-31T12:22:42.123Z,21.40
2022-10-31T12:25:41.276Z,21.40
2022-10-31T12:28:08.146Z,21.40
2022-10-31T12:30:56.669Z,21.50
2022-10-31T12:33:59.454Z,21.50
2022-10-31T12:37:00.024Z,21.60
2022-10-31T12:39:57.887Z,21.60
2022-10-31T12:42:43.290Z,21.60
2022-10-31T12:45:28.746Z,21.60
2022-10-31T12:48:20.152Z,21.60
2022-10-31T12:51:04.473Z,21.60
2022-10-31T12:53:46.342Z,21.70
2022-10-31T12:56:25.338Z,21.70
2022-10-31T12:59:04.510Z,21.70
2022-10-31T13:01:49.094Z,21.70
2022-10-31T13:04:25.521Z,21.80
2022-10-31T13:06:59.141Z,21.80
2022-10-31T13:09:40.945Z,21.80
2022-10-31T13:12:17.584Z,21.80
2022-10-31T13:14:52.669Z,21.80
2022-10-31T13:17:32.625Z,21.80
2022-10-31T13:20:33.845Z,21.90
2022-10-31T13:23:50.563Z,22.10
2022-10-31T13:26:39.366Z,22.50
2022-10-31T13:29:27.033Z,22.80
2022-10-31T13:31:57.095Z,23.10
2022-10-31T13:34:31.493Z,23.30
2022-10-31T13:37:06.735Z,23.60
2022-10-31T13:40:01.839Z,23.80
2022-10-31T13:42:44.007Z,24.10
2022-10-31T13:45:19.756Z,24.30
2022-10-31T13:47:58.722Z,24.60
2022-10-31T13:50:31.805Z,24.70
2022-10-31T13:53:14.004Z,24.90
2022-10-31T13:55:44.306Z,24.90
2022-10-31T13:58:27.875Z,24.90
2022-10-31T14:01:00.788Z,24.90
2022-10-31T14:03:57.446Z,24.90
2022-10-31T14:06:17.056Z,24.90
2022-10-31T14:08:51.236Z,24.90
2022-10-31T14:11:29.358Z,25.10
2022-10-31T14:14:01.875Z,25.30
2022-10-31T14:16:31.605Z,25.50
2022-10-31T14:19:20.864Z,25.80
2022-10-31T14:21:51.911Z,26.20
2022-10-31T14:24:24.973Z,26.40
2022-10-31T14:27:01.445Z,26.40
2022-10-31T14:29:33.404Z,26.30
2022-10-31T14:32:15.507Z,26.20
2022-10-31T14:34:51.454Z,26.00
2022-10-31T14:37:41.043Z,25.80
2022-10-31T14:40:19.891Z,25.70
2022-10-31T14:43:19.101Z,25.50
2022-10-31T14:46:12.737Z,25.50
2022-10-31T14:49:10.543Z,25.40
2022-10-31T14:51:45.171Z,25.50
2022-10-31T14:54:35.153Z,25.50
2022-10-31T14:57:31.552Z,25.70
2022-10-31T15:00:08.429Z,26.10
2022-10-31T15:02:39.730Z,26.40
2022-10-31T15:05:11.669Z,26.60
2022-10-31T15:07:53.323Z,26.70
2022-10-31T15:10:23.557Z,26.80
2022-10-31T15:12:50.746Z,26.80
2022-10-31T15:15:26.759Z,26.80
2022-10-31T15:17:59.947Z,26.70
2022-10-31T15:20:32.107Z,26.70
2022-10-31T15:23:00.626Z,26.70
2022-10-31T15:25:34.269Z,26.70
2022-10-31T15:28:01.553Z,26.60
2022-10-31T15:30:30.263Z,26.40
2022-10-31T15:32:59.213Z,26.20
2022-10-31T15:35:31.589Z,25.90
2022-10-31T15:38:00.523Z,25.70
2022-10-31T15:40:29.077Z,25.60
2022-10-31T15:43:05.587Z,25.40
2022-10-31T15:45:32.816Z,25.30
2022-10-31T15:48:19.303Z,25.10
2022-10-31T15:50:56.241Z,24.90
2022-10-31T15:53:37.671Z,24.70
2022-10-31T15:56:09.436Z,24.60
2022-10-31T15:58:47.065Z,24.40
2022-10-31T16:01:40.413Z,24.30
2022-10-31T16:04:13.704Z,24.10
2022-10-31T16:06:40.676Z,24.00
2022-10-31T16:09:24.588Z,23.90
2022-10-31T16:11:52.029Z,23.80
2022-10-31T16:14:25.756Z,23.70
2022-10-31T16:16:55.517Z,23.60
2022-10-31T16:19:32.357Z,23.60
2022-10-31T16:22:13.180Z,23.50
2022-10-31T16:24:48.736Z,23.40
2022-10-31T16:27:24.221Z,23.30
2022-10-31T16:29:51.276Z,23.20
2022-10-31T16:32:54.829Z,23.20
2022-10-31T16:35:37.853Z,23.10
2022-10-31T16:38:05.901Z,23.10
2022-10-31T16:40:33.875Z,23.00
2022-10-31T16:43:02.387Z,22.90
2022-10-31T16:45:32.301Z,22.90
2022-10-31T16:48:10.664Z,22.90
2022-10-31T16:50:38.578Z,22.80
2022-10-31T16:53:13.845Z,22.80
2022-10-31T16:55:46.043Z,22.70
2022-10-31T16:58:30.700Z,22.70
2022-10-31T17:00:58.468Z,22.70
2022-10-31T17:03:25.609Z,22.60
2022-10-31T17:05:52.980Z,22.60
2022-10-31T17:08:20.008Z,22.60
2022-10-31T17:10:50.897Z,22.50
2022-10-31T17:13:22.589Z,22.50
2022-10-31T17:15:53.327Z,22.50
2022-10-31T17:18:24.433Z,22.40
2022-10-31T17:21:03.175Z,22.40
2022-10-31T17:23:30.415Z,22.40
2022-10-31T17:25:57.696Z,22.40
2022-10-31T17:28:26.628Z,22.30
2022-10-31T17:30:55.603Z,22.30
2022-10-31T17:33:22.801Z,22.20
2022-10-31T17:35:50.051Z,22.10
2022-10-31T17:38:16.964Z,22.00
2022-10-31T17:40:44.139Z,22.00
2022-10-31T17:43:12.251Z,21.90
2022-10-31T17:45:40.926Z,21.90
2022-10-31T17:48:10.949Z,21.80
2022-10-31T17:50:37.904Z,21.70
2022-10-31T17:53:05.014Z,21.70
2022-10-31T17:55:36.140Z,21.70
2022-10-31T17:58:04.943Z,21.70
2022-10-31T18:00:32.104Z,21.70
2022-10-31T18:02:59.675Z,21.60
2022-10-31T18:05:26.902Z,21.60
2022-10-31T18:07:54.206Z,21.60
2022-10-31T18:10:21.168Z,21.50
2022-10-31T18:12:50.796Z,21.50
2022-10-31T18:15:17.940Z,21.50
2022-10-31T18:17:45.727Z,21.40
2022-10-31T18:20:12.896Z,21.40
2022-10-31T18:22:39.831Z,21.40
2022-10-31T18:25:07.088Z,21.40
2022-10-31T18:27:34.010Z,21.40
2022-10-31T18:30:00.965Z,21.40
2022-10-31T18:32:27.933Z,21.40
2022-10-31T18:34:54.900Z,21.30
2022-10-31T18:37:21.969Z,21.30
2022-10-31T18:39:48.953Z,21.30
2022-10-31T18:42:15.869Z,21.20
2022-10-31T18:44:42.823Z,21.20
2022-10-31T18:47:09.754Z,21.20
2022-10-31T18:49:36.756Z,21.20
2022-10-31T18:52:04.722Z,21.10
2022-10-31T18:54:31.714Z,21.10
2022-10-31T18:56:58.701Z,21.10
2022-10-31T18:59:25.702Z,21.10
2022-10-31T19:01:52.824Z,21.10
2022-10-31T19:04:19.893Z,21.10
2022-10-31T19:06:46.902Z,21.00
2022-10-31T19:09:13.962Z,21.00
2022-10-31T19:11:40.860Z,21.00
2022-10-31T19:14:11.107Z,20.90
2022-10-31T19:16:38.123Z,20.90
2022-10-31T19:19:05.420Z,20.90
2022-10-31T19:21:32.546Z,20.80
2022-10-31T19:24:00.856Z,20.80
2022-10-31T19:26:28.757Z,20.80
2022-10-31T19:28:56.747Z,20.70
2022-10-31T19:31:24.777Z,20.70
2022-10-31T19:33:51.788Z,20.70
2022-10-31T19:36:20.007Z,20.70
2022-10-31T19:38:49.518Z,20.60
2022-10-31T19:41:22.232Z,20.60
2022-10-31T19:43:49.920Z,20.60
2022-10-31T19:46:28.009Z,20.50
2022-10-31T19:49:05.841Z,20.50
2022-10-31T19:51:32.809Z,20.40
2022-10-31T19:53:59.757Z,20.40
2022-10-31T19:56:26.749Z,20.30
2022-10-31T19:58:53.700Z,20.40
2022-10-31T20:01:23.378Z,20.40
2022-10-31T20:03:51.237Z,20.30
2022-10-31T20:06:27.766Z,20.30
2022-10-31T20:08:58.489Z,20.30
2022-10-31T20:11:27.111Z,20.30
2022-10-31T20:13:58.593Z,20.30
2022-10-31T20:16:27.091Z,20.20
2022-10-31T20:18:54.864Z,20.20
2022-10-31T20:21:25.022Z,20.20
2022-10-31T20:24:00.628Z,20.20
2022-10-31T20:26:28.863Z,20.20
2022-10-31T20:28:57.036Z,20.10
2022-10-31T20:31:26.869Z,20.10
2022-10-31T20:33:55.720Z,20.10
2022-10-31T20:36:23.360Z,20.10
2022-10-31T20:38:52.208Z,20.00
2022-10-31T20:41:19.597Z,20.00
2022-10-31T20:43:47.031Z,20.00
2022-10-31T20:46:21.891Z,20.00
2022-10-31T20:48:49.208Z,19.90
2022-10-31T20:51:21.895Z,20.00
2022-10-31T20:53:50.362Z,19.90
2022-10-31T20:56:20.184Z,19.90
2022-10-31T20:58:47.513Z,19.90
2022-10-31T21:01:19.936Z,19.90
2022-10-31T21:03:47.587Z,19.90
2022-10-31T21:06:15.310Z,19.80
2022-10-31T21:08:43.522Z,19.80
2022-10-31T21:11:12.935Z,19.80
2022-10-31T21:13:42.782Z,19.80
2022-10-31T21:16:14.616Z,19.80
2022-10-31T21:18:42.868Z,19.70
2022-10-31T21:21:17.721Z,19.70
2022-10-31T21:23:45.000Z,19.70
2022-10-31T21:26:19.109Z,19.70
2022-10-31T21:28:46.036Z,19.60
2022-10-31T21:31:16.374Z,19.70
2022-10-31T21:33:44.211Z,19.60
2022-10-31T21:36:12.481Z,19.60
2022-10-31T21:38:39.813Z,19.50
2022-10-31T21:41:09.925Z,19.50
2022-10-31T21:43:38.833Z,19.40
2022-10-31T21:46:07.801Z,19.40
2022-10-31T21:48:39.104Z,19.40
2022-10-31T21:51:09.020Z,19.40
2022-10-31T21:53:55.338Z,19.30
2022-10-31T21:56:23.223Z,19.30
2022-10-31T21:58:51.239Z,19.30
2022-10-31T22:01:19.159Z,19.20
2022-10-31T22:03:46.192Z,19.20
2022-10-31T22:06:13.652Z,19.20
2022-10-31T22:08:41.081Z,19.10
2022-10-31T22:11:10.840Z,19.10
2022-10-31T22:13:37.846Z,19.00
2022-10-31T22:16:07.521Z,18.90
2022-10-31T22:18:35.041Z,18.90
2022-10-31T22:21:07.945Z,18.90
2022-10-31T22:23:35.518Z,18.90
2022-10-31T22:26:14.433Z,18.80
2022-10-31T22:28:42.890Z,18.80
2022-10-31T22:31:13.148Z,18.80
2022-10-31T22:33:40.844Z,18.80
2022-10-31T22:36:13.874Z,18.80
2022-10-31T22:38:41.831Z,18.80
2022-10-31T22:41:12.803Z,18.80
2022-10-31T22:43:40.223Z,18.80
2022-10-31T22:46:10.288Z,18.80
2022-10-31T22:48:46.431Z,18.70
2022-10-31T22:51:16.178Z,18.60
2022-10-31T22:53:44.496Z,18.60
2022-10-31T22:56:13.778Z,18.60
2022-10-31T22:58:41.069Z,18.70
2022-10-31T23:01:16.926Z,18.70
2022-10-31T23:03:44.861Z,18.60
2022-10-31T23:06:14.734Z,18.60
2022-10-31T23:08:42.628Z,18.60
2022-10-31T23:11:27.468Z,18.70
2022-10-31T23:14:09.297Z,18.60
2022-10-31T23:16:37.448Z,18.60
2022-10-31T23:19:08.388Z,18.60
2022-10-31T23:21:58.945Z,18.60
2022-10-31T23:24:37.933Z,18.60
2022-10-31T23:27:10.335Z,18.60
2022-10-31T23:29:57.721Z,18.60
2022-10-31T23:32:36.747Z,18.60
2022-10-31T23:35:06.495Z,18.60
2022-10-31T23:37:35.253Z,18.50
2022-10-31T23:40:02.682Z,18.50
2022-10-31T23:42:29.696Z,18.50
2022-10-31T23:44:56.940Z,18.50
2022-10-31T23:47:24.147Z,18.50
2022-10-31T23:49:51.280Z,18.50
2022-10-31T23:52:18.713Z,18.50
2022-10-31T23:54:45.616Z,18.50
2022-10-31T23:57:14.020Z,18.40
2022-10-31T23:59:40.980Z,18.40
